Time;durP1;ratioP1;P1;durP2;ratioP2;P2;SDS_P1;SDS_P2;PMS_P1;PMS_P2;Temp;Humidity;BMP_temperature;BMP_pressure;BME280_temperature;BME280_humidity;BME280_pressure;Samples;Min_cycle;Max_cycle;Signal;HPM_P1;HPM_P2
2022/03/06 00:00:34;;;;;;;0.40;0.40;;;0.90;99.90;;;;;;5075288;28;20950;-65
2022/03/06 00:03:21;;;;;;;0.40;0.40;;;1.00;99.90;;;;;;5075206;28;20500;-64
2022/03/06 00:06:08;;;;;;;0.97;0.97;;;1.10;99.90;;;;;;5074753;28;20461;-64
2022/03/06 00:08:54;;;;;;;0.40;0.40;;;1.20;99.90;;;;;;5074931;28;20437;-64
2022/03/06 00:11:44;;;;;;;0.40;0.40;;;1.20;99.90;;;;;;5075183;28;20456;-64
2022/03/06 00:14:31;;;;;;;0.40;0.40;;;1.00;99.90;;;;;;5075130;28;20802;-65
2022/03/06 00:17:18;;;;;;;0.40;0.40;;;1.30;99.90;;;;;;5074752;28;20504;-65
2022/03/06 00:20:08;;;;;;;0.60;0.60;;;1.30;99.90;;;;;;5074944;28;20553;-64
2022/03/06 00:22:55;;;;;;;0.40;0.40;;;1.30;99.90;;;;;;5075295;28;20434;-65
2022/03/06 00:25:42;;;;;;;0.40;0.40;;;1.40;99.90;;;;;;5085715;28;20435;-65
2022/03/06 00:28:30;;;;;;;0.40;0.40;;;1.40;99.90;;;;;;5091735;28;20424;-65
2022/03/06 00:31:17;;;;;;;0.50;0.50;;;1.40;99.90;;;;;;5090502;28;20463;-65
2022/03/06 00:34:04;;;;;;;2.30;2.10;;;1.50;99.90;;;;;;5096227;28;20435;-65
2022/03/06 00:36:51;;;;;;;2.20;2.03;;;1.40;99.90;;;;;;5108504;28;20436;-66
2022/03/06 00:39:38;;;;;;;0.40;0.40;;;1.20;99.90;;;;;;5096524;28;20430;-65
2022/03/06 00:42:25;;;;;;;0.50;0.50;;;1.10;99.90;;;;;;5095296;28;20430;-65
2022/03/06 00:45:13;;;;;;;0.50;0.50;;;1.20;99.90;;;;;;5094456;28;20467;-65
2022/03/06 00:48:00;;;;;;;0.40;0.40;;;1.20;99.90;;;;;;5094956;28;20842;-65
2022/03/06 00:50:48;;;;;;;0.40;0.40;;;1.20;99.90;;;;;;5094757;28;20457;-65
2022/03/06 00:53:35;;;;;;;0.60;0.60;;;1.20;99.90;;;;;;5094796;28;20508;-65
2022/03/06 00:56:22;;;;;;;0.60;0.60;;;1.20;99.90;;;;;;5094795;28;21002;-65
2022/03/06 00:59:09;;;;;;;0.40;0.40;;;1.10;99.90;;;;;;5094700;28;20451;-65
2022/03/06 01:01:57;;;;;;;2.07;1.97;;;1.10;99.90;;;;;;5095018;28;20415;-65
2022/03/06 01:04:44;;;;;;;0.40;0.40;;;1.10;99.90;;;;;;5094892;28;20818;-65
2022/03/06 01:07:31;;;;;;;3.13;1.83;;;0.90;99.90;;;;;;5094840;28;20423;-65
2022/03/06 01:10:18;;;;;;;0.40;0.40;;;0.80;99.90;;;;;;5094463;28;21052;-64
2022/03/06 01:13:06;;;;;;;0.40;0.40;;;0.80;99.90;;;;;;5094341;28;20423;-64
2022/03/06 01:15:52;;;;;;;0.40;0.40;;;0.80;99.90;;;;;;5094410;28;20807;-64
2022/03/06 01:18:41;;;;;;;0.50;0.50;;;0.90;99.90;;;;;;5094320;28;20484;-64
2022/03/06 01:21:28;;;;;;;0.40;0.40;;;1.00;99.90;;;;;;5094907;28;20422;-64
2022/03/06 01:24:15;;;;;;;0.40;0.40;;;1.10;99.90;;;;;;5094062;28;20431;-64
2022/03/06 01:27:02;;;;;;;0.40;0.40;;;1.20;99.90;;;;;;5094301;28;20468;-63
2022/03/06 01:29:49;;;;;;;1.90;1.80;;;1.30;99.90;;;;;;5093306;28;20459;-64
2022/03/06 01:32:36;;;;;;;4.67;4.47;;;1.20;99.90;;;;;;5094082;28;20419;-64
2022/03/06 01:35:25;;;;;;;0.50;0.50;;;1.40;99.90;;;;;;5075989;28;20443;-64
2022/03/06 01:38:12;;;;;;;0.40;0.40;;;1.20;99.90;;;;;;5072908;28;20417;-64
2022/03/06 01:40:58;;;;;;;0.40;0.40;;;1.10;99.90;;;;;;5072957;28;20424;-64
2022/03/06 01:43:45;;;;;;;0.40;0.40;;;1.10;99.90;;;;;;5073729;28;20424;-65
2022/03/06 01:46:32;;;;;;;0.50;0.50;;;1.20;99.90;;;;;;5110941;23;20478;-68
2022/03/06 01:49:19;;;;;;;0.50;0.50;;;1.20;99.90;;;;;;5092111;28;20423;-68
2022/03/06 01:52:08;;;;;;;0.40;0.40;;;1.30;99.90;;;;;;5093433;28;20453;-68
2022/03/06 01:54:55;;;;;;;0.43;0.43;;;1.30;99.90;;;;;;5092203;28;20516;-68
2022/03/06 01:57:43;;;;;;;0.40;0.40;;;1.40;99.90;;;;;;5092890;28;20451;-68
2022/03/06 02:00:33;;;;;;;0.50;0.50;;;1.30;99.90;;;;;;5093000;28;20422;-68
2022/03/06 02:03:21;;;;;;;2.40;2.30;;;1.40;99.90;;;;;;5092500;28;20419;-68
2022/03/06 02:06:08;;;;;;;0.50;0.50;;;1.30;99.90;;;;;;5092667;28;20445;-67
2022/03/06 02:08:56;;;;;;;0.40;0.40;;;1.30;99.90;;;;;;5092705;28;20802;-68
2022/03/06 02:11:44;;;;;;;0.70;0.70;;;1.30;99.90;;;;;;5092549;28;20466;-68
2022/03/06 02:14:31;;;;;;;0.43;0.43;;;1.30;99.90;;;;;;5092206;28;20547;-68
2022/03/06 02:17:18;;;;;;;0.40;0.40;;;1.30;99.90;;;;;;5075368;28;20436;-68
2022/03/06 02:20:08;;;;;;;0.40;0.40;;;1.30;99.90;;;;;;5076510;28;20827;-68
2022/03/06 02:22:59;;;;;;;0.40;0.40;;;1.40;99.90;;;;;;5073458;28;20428;-68
2022/03/06 02:25:45;;;;;;;0.40;0.40;;;1.40;99.90;;;;;;5073647;28;20433;-68
2022/03/06 02:28:33;;;;;;;0.50;0.50;;;1.40;99.90;;;;;;5073109;28;20428;-68
2022/03/06 02:31:20;;;;;;;0.40;0.40;;;1.50;99.90;;;;;;5072737;28;20460;-67
2022/03/06 02:34:08;;;;;;;0.40;0.40;;;1.50;99.90;;;;;;5073281;28;20565;-67
2022/03/06 02:36:55;;;;;;;0.47;0.47;;;;;;;;;;5072206;28;20436;-67
2022/03/06 02:39:45;;;;;;;0.40;0.40;;;1.40;99.90;;;;;;5074291;28;20428;-67
2022/03/06 02:42:34;;;;;;;0.50;0.50;;;1.30;99.90;;;;;;5082389;28;21198;-68
2022/03/06 02:45:24;;;;;;;0.50;0.50;;;1.40;99.90;;;;;;5088620;28;20459;-67
2022/03/06 02:48:11;;;;;;;0.50;0.50;;;1.40;99.90;;;;;;5088884;28;20446;-68
2022/03/06 02:50:58;;;;;;;0.50;0.50;;;1.40;99.90;;;;;;5089591;28;20979;-67
2022/03/06 02:53:45;;;;;;;0.40;0.40;;;1.40;99.90;;;;;;5086778;28;20477;-69
2022/03/06 02:56:33;;;;;;;0.90;0.90;;;1.50;99.90;;;;;;5088337;28;20447;-67
2022/03/06 02:59:20;;;;;;;0.40;0.40;;;1.40;99.90;;;;;;5090868;28;20497;-68
2022/03/06 03:02:07;;;;;;;0.93;0.93;;;1.60;99.90;;;;;;5089298;28;20458;-67
2022/03/06 03:04:54;;;;;;;0.77;0.77;;;1.40;99.90;;;;;;5089211;28;20443;-67
2022/03/06 03:07:42;;;;;;;0.40;0.40;;;1.50;99.90;;;;;;5088772;28;20462;-68
2022/03/06 03:10:29;;;;;;;0.50;0.50;;;1.50;99.90;;;;;;5088320;28;20490;-68
2022/03/06 03:13:17;;;;;;;0.50;0.50;;;1.50;99.90;;;;;;5077350;28;20459;-67
2022/03/06 03:16:05;;;;;;;0.40;0.40;;;1.40;99.90;;;;;;5072375;28;20446;-67
2022/03/06 03:18:52;;;;;;;0.53;0.53;;;1.40;99.90;;;;;;5071047;28;20416;-67
2022/03/06 03:21:38;;;;;;;0.70;0.70;;;1.30;99.90;;;;;;5070927;28;20416;-67
2022/03/06 03:24:26;;;;;;;0.40;0.40;;;1.30;99.90;;;;;;5071138;28;20428;-67
2022/03/06 03:27:13;;;;;;;0.40;0.40;;;1.30;99.90;;;;;;5071042;28;20526;-67
2022/03/06 03:30:02;;;;;;;0.50;0.50;;;1.20;99.90;;;;;;5071103;28;20424;-67
2022/03/06 03:32:49;;;;;;;0.50;0.50;;;1.20;99.90;;;;;;5070916;28;20423;-67
2022/03/06 03:35:36;;;;;;;0.97;0.97;;;1.20;99.90;;;;;;5090159;28;20488;-67
2022/03/06 03:38:23;;;;;;;0.67;0.67;;;1.30;99.90;;;;;;5092249;28;20418;-67
2022/03/06 03:41:10;;;;;;;0.50;0.50;;;1.20;99.90;;;;;;5092171;28;20453;-67
2022/03/06 03:43:57;;;;;;;0.50;0.50;;;1.30;99.90;;;;;;5092125;28;20500;-67
2022/03/06 03:46:45;;;;;;;0.50;0.50;;;1.20;99.90;;;;;;5092125;28;20511;-67
2022/03/06 03:49:32;;;;;;;0.50;0.50;;;1.20;99.90;;;;;;5092258;28;20799;-67
2022/03/06 03:52:19;;;;;;;0.40;0.40;;;1.30;99.90;;;;;;5091810;28;20596;-67
2022/03/06 03:55:07;;;;;;;0.80;0.80;;;1.40;99.90;;;;;;5092064;28;20784;-67
2022/03/06 03:57:54;;;;;;;0.40;0.40;;;1.30;99.90;;;;;;5091839;28;20534;-67
2022/03/06 04:00:41;;;;;;;0.40;0.40;;;1.40;99.90;;;;;;5092155;28;20484;-67
2022/03/06 04:03:29;;;;;;;0.80;0.80;;;1.20;99.90;;;;;;5091437;28;20941;-67
2022/03/06 04:06:16;;;;;;;0.60;0.60;;;1.20;99.90;;;;;;5091962;28;20483;-67
2022/03/06 04:09:04;;;;;;;0.50;0.50;;;1.20;99.90;;;;;;5091462;28;20430;-67
2022/03/06 04:11:50;;;;;;;0.50;0.50;;;1.40;99.90;;;;;;5090547;28;20493;-67
2022/03/06 04:14:37;;;;;;;0.40;0.40;;;1.40;99.90;;;;;;5091667;28;20415;-67
2022/03/06 04:17:24;;;;;;;0.50;0.50;;;1.40;99.90;;;;;;5091812;28;20469;-67
2022/03/06 04:20:13;;;;;;;0.50;0.50;;;1.50;99.90;;;;;;5091356;28;20482;-67
2022/03/06 04:22:59;;;;;;;0.40;0.40;;;1.70;99.90;;;;;;5094654;28;20415;-67
2022/03/06 04:25:46;;;;;;;0.70;0.70;;;1.60;99.90;;;;;;5094359;28;20944;-67
2022/03/06 04:28:33;;;;;;;0.50;0.50;;;1.40;99.90;;;;;;5094477;28;20473;-67
2022/03/06 04:31:20;;;;;;;0.50;0.50;;;1.30;99.90;;;;;;5096037;28;20466;-67
2022/03/06 04:34:07;;;;;;;0.40;0.40;;;1.20;99.90;;;;;;5094811;28;20771;-67
2022/03/06 04:36:55;;;;;;;0.50;0.50;;;1.10;99.90;;;;;;5094542;28;20447;-67
2022/03/06 04:39:42;;;;;;;0.63;0.63;;;1.10;99.90;;;;;;5094932;28;20423;-67
2022/03/06 04:42:29;;;;;;;0.40;0.40;;;1.00;99.90;;;;;;5094594;28;20439;-67
2022/03/06 04:45:16;;;;;;;0.50;0.50;;;1.00;99.90;;;;;;5094333;28;20463;-67
2022/03/06 04:48:03;;;;;;;0.40;0.40;;;1.00;99.90;;;;;;5095007;28;20508;-67
2022/03/06 04:50:50;;;;;;;0.70;0.70;;;1.00;99.90;;;;;;5094088;28;20458;-67
2022/03/06 04:53:39;;;;;;;0.50;0.50;;;1.10;99.90;;;;;;5094330;28;20426;-67
2022/03/06 04:56:26;;;;;;;0.47;0.47;;;1.00;99.90;;;;;;5094646;28;20993;-67
2022/03/06 04:59:13;;;;;;;0.57;0.57;;;1.00;99.90;;;;;;5094552;28;20514;-67
2022/03/06 05:02:00;;;;;;;0.50;0.50;;;0.90;99.90;;;;;;5094070;28;20430;-67
2022/03/06 05:04:47;;;;;;;1.47;1.37;;;0.80;99.90;;;;;;5094487;28;20456;-67
2022/03/06 05:07:34;;;;;;;0.50;0.50;;;0.90;99.90;;;;;;5094778;28;20863;-68
2022/03/06 05:10:22;;;;;;;0.50;0.50;;;0.90;99.90;;;;;;5094307;28;20430;-67
2022/03/06 05:13:10;;;;;;;0.70;0.70;;;0.80;99.90;;;;;;5093268;28;20824;-68
2022/03/06 05:15:56;;;;;;;0.53;0.53;;;0.90;99.90;;;;;;5093850;28;20444;-68
2022/03/06 05:18:44;;;;;;;1.53;0.70;;;0.70;99.90;;;;;;5092894;28;20462;-67
2022/03/06 05:21:31;;;;;;;2.40;1.17;;;0.70;99.90;;;;;;5094106;28;20800;-67
2022/03/06 05:24:17;;;;;;;1.10;1.10;;;0.70;99.90;;;;;;5093897;28;20560;-68
2022/03/06 05:27:06;;;;;;;0.50;0.50;;;0.70;99.90;;;;;;5093932;28;20419;-68
2022/03/06 05:29:53;;;;;;;0.40;0.40;;;0.60;99.90;;;;;;5093154;28;20480;-68
2022/03/06 05:32:40;;;;;;;0.40;0.40;;;0.60;99.90;;;;;;5093206;28;20589;-68
2022/03/06 05:35:27;;;;;;;0.50;0.50;;;0.60;99.90;;;;;;5074894;28;21001;-68
2022/03/06 05:38:14;;;;;;;2.37;2.20;;;0.60;99.90;;;;;;5073049;28;20477;-68
2022/03/06 05:41:01;;;;;;;0.50;0.50;;;0.80;99.90;;;;;;5073182;28;20412;-68
2022/03/06 05:43:50;;;;;;;0.50;0.50;;;0.80;99.90;;;;;;5073058;28;20849;-68
2022/03/06 05:46:37;;;;;;;0.40;0.40;;;1.00;99.90;;;;;;5072813;28;20471;-68
2022/03/06 05:49:23;;;;;;;0.40;0.40;;;1.00;99.90;;;;;;5072204;28;20428;-68
2022/03/06 05:52:10;;;;;;;0.40;0.40;;;1.10;99.90;;;;;;5072493;28;20455;-68
2022/03/06 05:54:57;;;;;;;0.60;0.60;;;1.10;99.90;;;;;;5072608;28;20490;-68
2022/03/06 05:57:45;;;;;;;0.40;0.40;;;1.10;99.90;;;;;;5073240;28;20474;-68
2022/03/06 06:00:33;;;;;;;0.40;0.40;;;1.20;99.90;;;;;;5072289;28;20800;-68
2022/03/06 06:03:20;;;;;;;0.70;0.70;;;1.20;99.90;;;;;;5071739;28;20470;-68
2022/03/06 06:06:07;;;;;;;0.40;0.40;;;1.10;99.90;;;;;;5072749;28;20955;-68
2022/03/06 06:08:54;;;;;;;0.40;0.40;;;1.10;99.90;;;;;;5072259;28;20423;-68
2022/03/06 06:11:41;;;;;;;0.70;0.70;;;0.90;99.90;;;;;;5071968;28;20468;-67
2022/03/06 06:14:28;;;;;;;0.40;0.40;;;0.80;99.90;;;;;;5072416;28;20985;-67
2022/03/06 06:17:16;;;;;;;0.40;0.40;;;0.80;99.90;;;;;;5072399;28;20507;-68
2022/03/06 06:20:06;;;;;;;0.50;0.50;;;0.80;99.90;;;;;;5072570;28;20427;-68
2022/03/06 06:22:53;;;;;;;0.70;0.70;;;0.80;99.90;;;;;;5072963;28;20511;-67
2022/03/06 06:25:40;;;;;;;3.37;3.23;;;0.90;99.90;;;;;;5073228;28;21015;-68
2022/03/06 06:28:27;;;;;;;0.50;0.50;;;0.90;99.90;;;;;;5073782;28;20427;-68
2022/03/06 06:31:14;;;;;;;0.40;0.40;;;0.70;99.90;;;;;;5072722;28;20423;-68
2022/03/06 06:34:02;;;;;;;0.40;0.40;;;0.80;99.90;;;;;;5077662;28;20454;-68
2022/03/06 06:36:49;;;;;;;0.50;0.50;;;0.70;99.90;;;;;;5092281;28;20447;-68
2022/03/06 06:39:36;;;;;;;0.50;0.50;;;0.90;99.90;;;;;;5092638;28;20500;-68
2022/03/06 06:42:23;;;;;;;0.50;0.50;;;0.90;99.90;;;;;;5092281;28;20443;-68
2022/03/06 06:45:10;;;;;;;0.50;0.50;;;1.00;99.90;;;;;;5092266;28;20516;-68
2022/03/06 06:47:57;;;;;;;0.80;0.80;;;1.00;99.90;;;;;;5093603;28;20884;-68
2022/03/06 06:50:45;;;;;;;0.50;0.50;;;0.90;99.90;;;;;;5092523;28;20427;-68
2022/03/06 06:53:34;;;;;;;0.50;0.50;;;1.00;99.90;;;;;;5092169;28;20879;-68
2022/03/06 06:56:21;;;;;;;0.50;0.50;;;1.00;99.90;;;;;;5092030;28;20508;-68
2022/03/06 06:59:08;;;;;;;0.50;0.50;;;1.10;99.90;;;;;;5092246;28;20423;-68
2022/03/06 07:01:55;;;;;;;0.40;0.40;;;1.30;99.90;;;;;;5092068;28;20410;-68
2022/03/06 07:04:42;;;;;;;0.57;0.57;;;1.20;99.90;;;;;;5091976;28;20447;-68
2022/03/06 07:07:30;;;;;;;0.60;0.60;;;1.20;99.90;;;;;;5092221;28;20988;-68
2022/03/06 07:10:17;;;;;;;0.80;0.80;;;1.20;99.90;;;;;;5091330;28;20490;-68
2022/03/06 07:13:03;;;;;;;0.50;0.50;;;1.30;99.90;;;;;;5091464;28;20454;-69
2022/03/06 07:15:50;;;;;;;0.40;0.40;;;1.40;99.90;;;;;;5091850;28;20519;-68
2022/03/06 07:18:37;;;;;;;0.50;0.50;;;1.40;99.90;;;;;;5091946;28;21003;-67
2022/03/06 07:21:24;;;;;;;0.50;0.50;;;1.50;99.90;;;;;;5091839;28;20721;-68
2022/03/06 07:24:12;;;;;;;0.50;0.50;;;1.60;99.90;;;;;;5092505;28;20501;-68
2022/03/06 07:26:59;;;;;;;0.40;0.40;;;1.70;99.90;;;;;;5092244;28;20422;-67
2022/03/06 07:29:46;;;;;;;4.33;1.43;;;1.80;99.90;;;;;;5092201;28;20430;-67
2022/03/06 07:32:33;;;;;;;0.57;0.57;;;1.80;99.90;;;;;;5092108;28;20498;-67
2022/03/06 07:35:22;;;;;;;0.50;0.50;;;1.90;99.90;;;;;;5078202;28;20503;-67
2022/03/06 07:38:09;;;;;;;0.40;0.40;;;1.90;99.90;;;;;;5074183;28;20416;-67
2022/03/06 07:40:57;;;;;;;0.40;0.40;;;2.00;99.90;;;;;;5075285;28;20420;-67
2022/03/06 07:43:44;;;;;;;1.20;1.20;;;2.00;99.90;;;;;;5075716;28;20888;-67
2022/03/06 07:46:31;;;;;;;0.40;0.40;;;2.00;99.90;;;;;;5108296;23;20866;-69
2022/03/06 07:49:18;;;;;;;0.40;0.40;;;2.10;99.90;;;;;;5096505;28;20434;-71
2022/03/06 07:52:05;;;;;;;0.40;0.40;;;1.90;99.90;;;;;;5110638;28;20454;-70
2022/03/06 07:54:52;;;;;;;0.60;0.60;;;2.00;99.90;;;;;;5096889;28;20423;-70
2022/03/06 07:57:41;;;;;;;0.40;0.40;;;2.00;99.90;;;;;;5077970;28;20462;-72
2022/03/06 08:00:28;;;;;;;1.07;1.07;;;2.00;99.90;;;;;;5078017;28;20428;-72
2022/03/06 08:03:16;;;;;;;0.40;0.40;;;2.30;99.90;;;;;;5077218;28;20423;-70
2022/03/06 08:06:03;;;;;;;1.50;1.27;;;2.20;99.90;;;;;;5078968;28;20439;-70
2022/03/06 08:08:50;;;;;;;0.50;0.50;;;2.30;99.90;;;;;;5078220;28;20424;-71
2022/03/06 08:11:37;;;;;;;0.73;0.73;;;;;;;;;;5077894;28;20435;-70
2022/03/06 08:14:26;;;;;;;0.40;0.40;;;2.40;99.90;;;;;;5092964;28;20437;-72
2022/03/06 08:17:13;;;;;;;0.40;0.40;;;2.50;99.90;;;;;;5095110;28;20448;-72
2022/03/06 08:19:59;;;;;;;0.50;0.50;;;2.60;99.90;;;;;;5093709;28;20443;-71
2022/03/06 08:22:46;;;;;;;0.40;0.40;;;2.60;99.90;;;;;;5093165;28;20428;-71
2022/03/06 08:25:34;;;;;;;0.50;0.50;;;2.60;99.90;;;;;;5078040;28;20514;-70
2022/03/06 08:28:21;;;;;;;0.80;0.60;;;2.70;99.90;;;;;;5078406;28;20439;-71
2022/03/06 08:31:09;;;;;;;1.20;1.10;;;2.70;99.90;;;;;;5077712;28;20900;-70
2022/03/06 08:33:56;;;;;;;0.60;0.60;;;2.70;99.90;;;;;;5076227;28;20471;-70
2022/03/06 08:36:43;;;;;;;0.83;0.80;;;2.70;99.90;;;;;;5076981;28;20444;-70
2022/03/06 08:39:30;;;;;;;2.10;2.00;;;2.50;99.90;;;;;;5075283;28;20465;-70
2022/03/06 08:42:18;;;;;;;1.17;1.07;;;2.40;99.90;;;;;;5076314;28;20857;-71
2022/03/06 08:45:06;;;;;;;0.77;0.77;;;2.40;99.90;;;;;;5074953;28;20435;-71
2022/03/06 08:47:54;;;;;;;0.40;0.40;;;2.30;99.90;;;;;;5076189;28;20427;-71
2022/03/06 08:50:41;;;;;;;2.10;2.00;;;2.40;99.90;;;;;;5076291;28;20424;-71
2022/03/06 08:53:28;;;;;;;0.67;0.67;;;2.50;99.90;;;;;;5077711;28;20495;-71
2022/03/06 08:56:15;;;;;;;0.50;0.50;;;2.50;99.90;;;;;;5076547;28;20448;-71
2022/03/06 08:59:01;;;;;;;0.73;0.73;;;2.60;99.90;;;;;;5076177;28;20431;-71
2022/03/06 09:01:49;;;;;;;0.40;0.40;;;2.60;99.90;;;;;;5076394;28;20442;-70
2022/03/06 09:04:37;;;;;;;0.40;0.40;;;2.70;99.90;;;;;;5076064;28;20432;-71
2022/03/06 09:07:24;;;;;;;0.50;0.50;;;2.70;99.90;;;;;;5075045;28;20458;-71
2022/03/06 09:10:11;;;;;;;1.00;0.70;;;2.80;99.90;;;;;;5076565;28;20427;-70
2022/03/06 09:13:00;;;;;;;0.90;0.90;;;2.80;99.90;;;;;;5077305;28;20499;-70
2022/03/06 09:15:47;;;;;;;1.83;1.70;;;2.90;99.90;;;;;;5076761;28;20451;-72
2022/03/06 09:18:34;;;;;;;0.43;0.43;;;2.90;99.90;;;;;;5077072;28;20434;-71
2022/03/06 09:21:22;;;;;;;0.40;0.40;;;2.80;99.90;;;;;;5077452;28;20434;-70
2022/03/06 09:24:10;;;;;;;0.50;0.50;;;2.80;99.90;;;;;;5076897;28;20935;-70
2022/03/06 09:26:58;;;;;;;0.40;0.40;;;2.80;99.90;;;;;;5075820;28;20459;-70
2022/03/06 09:29:45;;;;;;;1.20;1.10;;;3.00;99.90;;;;;;5074563;28;20466;-70
2022/03/06 09:32:32;;;;;;;0.40;0.40;;;3.30;99.90;;;;;;5074134;28;20451;-70
2022/03/06 09:35:18;;;;;;;2.20;1.63;;;3.60;99.90;;;;;;5059777;28;20482;-71
2022/03/06 09:38:07;;;;;;;0.50;0.50;;;3.80;99.90;;;;;;5056540;28;20436;-70
2022/03/06 09:40:56;;;;;;;0.50;0.50;;;3.70;99.90;;;;;;5055596;28;20562;-70
2022/03/06 09:43:44;;;;;;;0.93;0.53;;;3.60;99.90;;;;;;5054722;28;20424;-70
2022/03/06 09:46:34;;;;;;;1.07;1.07;;;3.50;99.90;;;;;;5056267;28;20453;-71
2022/03/06 09:49:21;;;;;;;0.40;0.40;;;3.30;99.90;;;;;;5056970;28;20432;-71
2022/03/06 09:52:08;;;;;;;0.63;0.63;;;3.50;99.90;;;;;;5056144;28;20521;-70
2022/03/06 09:54:57;;;;;;;0.40;0.40;;;3.60;99.90;;;;;;5062814;28;20421;-70
2022/03/06 09:57:44;;;;;;;0.70;0.70;;;3.70;99.90;;;;;;5066387;28;20421;-70
2022/03/06 10:00:31;;;;;;;1.03;0.93;;;3.60;99.90;;;;;;5055026;28;20425;-70
2022/03/06 10:03:19;;;;;;;1.23;1.23;;;3.60;99.90;;;;;;5055416;28;20459;-70
2022/03/06 10:06:07;;;;;;;0.50;0.50;;;3.50;99.90;;;;;;5057287;28;20956;-70
2022/03/06 10:09:04;;;;;;;0.60;0.60;;;3.50;99.90;;;;;;5056237;28;20427;-70
2022/03/06 10:11:54;;;;;;;0.80;0.80;;;3.50;99.90;;;;;;5054530;28;20434;-70
2022/03/06 10:14:42;;;;;;;0.60;0.60;;;3.40;99.90;;;;;;5054027;28;20423;-70
2022/03/06 10:17:31;;;;;;;0.40;0.40;;;3.50;99.90;;;;;;5054125;28;20436;-70
2022/03/06 10:20:18;;;;;;;0.40;0.40;;;3.30;99.90;;;;;;5055348;28;20427;-70
2022/03/06 10:23:23;;;;;;;0.77;0.77;;;3.40;99.90;;;;;;5055406;28;20474;-71
2022/03/06 10:26:12;;;;;;;0.47;0.47;;;3.40;99.90;;;;;;5055794;28;20514;-70
2022/03/06 10:29:02;;;;;;;1.77;1.67;;;3.50;99.90;;;;;;5055091;28;20463;-70
2022/03/06 10:31:58;;;;;;;0.93;0.93;;;3.60;99.90;;;;;;5055489;28;20417;-70
2022/03/06 10:34:45;;;;;;;0.50;0.50;;;3.60;99.90;;;;;;5066187;28;20435;-70
2022/03/06 10:37:32;;;;;;;1.77;1.20;;;3.70;99.90;;;;;;5073822;28;20434;-70
2022/03/06 10:40:32;;;;;;;0.50;0.50;;;3.70;99.90;;;;;;5073555;28;20420;-70
2022/03/06 10:43:21;;;;;;;0.40;0.40;;;3.60;99.90;;;;;;5074362;28;20806;-71
2022/03/06 10:46:11;;;;;;;0.40;0.40;;;3.80;99.90;;;;;;5072929;28;20468;-70
2022/03/06 10:49:00;;;;;;;1.43;0.67;;;3.80;99.90;;;;;;5074018;28;20763;-70
2022/03/06 10:51:50;;;;;;;0.40;0.40;;;3.90;99.90;;;;;;5072867;28;20427;-71
2022/03/06 10:54:48;;;;;;;0.40;0.40;;;3.90;99.90;;;;;;5073192;28;20475;-70
2022/03/06 10:57:35;;;;;;;0.40;0.40;;;4.20;99.90;;;;;;5075368;28;20420;-71
2022/03/06 11:00:23;;;;;;;1.30;0.93;;;4.40;99.90;;;;;;5082175;28;21235;-70
2022/03/06 11:03:13;;;;;;;0.50;0.50;;;4.30;99.90;;;;;;5080213;28;20431;-71
2022/03/06 11:06:01;;;;;;;0.40;0.40;;;4.20;99.90;;;;;;5079330;28;20444;-71
2022/03/06 11:08:49;;;;;;;0.40;0.40;;;4.20;99.90;;;;;;5079908;28;20427;-71
2022/03/06 11:11:36;;;;;;;0.40;0.40;;;4.10;99.90;;;;;;5079173;28;20478;-70
2022/03/06 11:14:24;;;;;;;8.20;1.57;;;;;;;;;;5078369;28;20471;-72
2022/03/06 11:17:11;;;;;;;0.40;0.40;;;4.20;99.90;;;;;;5076399;28;20447;-71
2022/03/06 11:20:00;;;;;;;0.40;0.40;;;4.30;99.90;;;;;;5080361;28;20427;-71
2022/03/06 11:22:53;;;;;;;0.50;0.50;;;4.40;99.90;;;;;;5077592;28;20431;-70
2022/03/06 11:25:50;;;;;;;0.40;0.40;;;4.50;99.90;;;;;;5075896;28;20440;-70
2022/03/06 11:28:44;;;;;;;0.70;0.70;;;4.60;99.90;;;;;;5075788;28;20485;-71
2022/03/06 11:31:44;;;;;;;4.63;2.80;;;4.90;99.90;;;;;;5079448;28;20518;-71
2022/03/06 11:34:34;;;;;;;0.40;0.40;;;4.90;99.90;;;;;;5066857;28;20487;-70
2022/03/06 11:37:24;;;;;;;0.60;0.60;;;4.70;99.90;;;;;;5058979;28;20478;-70
2022/03/06 11:40:38;;;;;;;0.80;0.80;;;4.80;99.90;;;;;;5058596;28;20498;-71
2022/03/06 11:43:35;;;;;;;0.97;0.97;;;4.80;99.90;;;;;;5059126;28;20421;-70
2022/03/06 11:46:24;;;;;;;0.50;0.50;;;4.90;99.90;;;;;;5058399;28;20834;-72
2022/03/06 11:49:12;;;;;;;0.50;0.50;;;4.80;99.90;;;;;;5059383;28;20429;-70
2022/03/06 11:51:59;;;;;;;0.40;0.40;;;4.80;99.90;;;;;;5059414;28;20443;-70
2022/03/06 11:54:47;;;;;;;0.40;0.40;;;4.90;99.90;;;;;;5058270;28;20486;-70
2022/03/06 11:57:38;;;;;;;0.40;0.40;;;5.00;99.90;;;;;;5058870;28;20771;-70
2022/03/06 12:00:28;;;;;;;0.60;0.60;;;5.10;99.90;;;;;;5072199;28;20429;-72
2022/03/06 12:03:15;;;;;;;0.40;0.40;;;5.50;99.50;;;;;;5058353;28;20504;-72
2022/03/06 12:06:14;;;;;;;0.40;0.40;;;5.70;98.50;;;;;;5058477;28;20538;-70
2022/03/06 12:09:01;;;;;;;0.40;0.40;;;6.40;98.30;;;;;;5057486;28;20482;-71
2022/03/06 12:11:50;;;;;;;0.40;0.40;;;6.90;96.50;;;;;;5057744;28;20425;-71
2022/03/06 12:14:39;;;;;;;0.40;0.40;;;7.10;95.20;;;;;;5056970;28;21002;-71
2022/03/06 12:17:44;;;;;;;0.50;0.50;;;7.30;95.00;;;;;;5057071;28;21027;-71
2022/03/06 12:20:41;;;;;;;0.80;0.80;;;7.30;93.20;;;;;;5058695;28;20421;-72
2022/03/06 12:23:30;;;;;;;0.40;0.40;;;6.90;92.70;;;;;;5056798;28;20420;-71
2022/03/06 12:26:44;;;;;;;0.40;0.40;;;6.60;92.60;;;;;;5057453;28;20913;-70
2022/03/06 12:29:57;;;;;;;0.73;0.73;;;6.40;93.30;;;;;;5058846;28;20420;-71
2022/03/06 12:32:44;;;;;;;0.50;0.50;;;6.20;92.60;;;;;;5058533;28;20413;-71
2022/03/06 12:35:31;;;;;;;0.50;0.50;;;5.90;93.10;;;;;;5058715;28;20449;-70
2022/03/06 12:38:22;;;;;;;0.40;0.40;;;5.80;93.40;;;;;;5057455;28;20455;-72
2022/03/06 12:41:09;;;;;;;3.33;2.60;;;5.80;93.10;;;;;;5056903;28;20432;-71
2022/03/06 12:44:03;;;;;;;0.70;0.70;;;5.70;93.10;;;;;;5056094;28;20470;-71
2022/03/06 12:46:51;;;;;;;0.63;0.63;;;5.40;93.50;;;;;;5056016;28;20480;-71
2022/03/06 12:49:38;;;;;;;0.40;0.40;;;5.30;93.40;;;;;;5057153;28;20433;-71
2022/03/06 12:52:28;;;;;;;0.40;0.40;;;5.20;93.40;;;;;;5056164;28;20851;-72
2022/03/06 12:55:17;;;;;;;0.40;0.40;;;5.30;93.50;;;;;;5057516;28;20447;-71
2022/03/06 12:58:04;;;;;;;0.40;0.40;;;5.40;93.50;;;;;;5056072;28;20420;-71
2022/03/06 13:00:51;;;;;;;0.40;0.40;;;5.40;93.60;;;;;;5056166;28;20510;-71
2022/03/06 13:03:39;;;;;;;0.40;0.40;;;5.30;93.70;;;;;;5054761;28;20413;-71
2022/03/06 13:06:26;;;;;;;0.47;0.47;;;5.20;93.60;;;;;;5056832;28;20440;-71
2022/03/06 13:09:21;;;;;;;0.90;0.70;;;5.10;93.70;;;;;;5056158;28;20452;-72
2022/03/06 13:12:08;;;;;;;0.67;0.67;;;5.10;93.80;;;;;;5055862;28;20467;-71
2022/03/06 13:14:55;;;;;;;0.40;0.40;;;5.10;94.20;;;;;;5054616;28;20467;-71
2022/03/06 13:17:44;;;;;;;0.40;0.40;;;5.10;94.30;;;;;;5054330;28;20835;-71
2022/03/06 13:20:35;;;;;;;0.40;0.40;;;5.00;93.80;;;;;;5055391;28;20495;-71
2022/03/06 13:23:22;;;;;;;0.40;0.40;;;5.00;94.10;;;;;;5054956;28;20490;-71
2022/03/06 13:26:09;;;;;;;0.40;0.40;;;5.00;94.20;;;;;;5054760;28;20464;-71
2022/03/06 13:28:57;;;;;;;0.40;0.40;;;5.00;94.40;;;;;;5055727;28;20914;-71
2022/03/06 13:31:47;;;;;;;0.67;0.67;;;4.80;94.30;;;;;;5056109;28;20428;-71
2022/03/06 13:34:41;;;;;;;0.40;0.40;;;4.60;94.40;;;;;;5066478;28;20460;-71
2022/03/06 13:37:35;;;;;;;0.70;0.63;;;4.40;95.00;;;;;;5075524;28;20431;-71
2022/03/06 13:40:25;;;;;;;2.20;2.10;;;4.40;95.50;;;;;;5054810;28;20436;-72
2022/03/06 13:43:13;;;;;;;0.50;0.50;;;4.40;95.70;;;;;;5054661;28;20421;-71
2022/03/06 13:46:00;;;;;;;0.40;0.40;;;4.50;95.60;;;;;;5087656;22;20486;-65
2022/03/06 13:48:47;;;;;;;0.50;0.50;;;4.50;96.00;;;;;;5092433;28;20437;-65
2022/03/06 13:51:34;;;;;;;0.70;0.57;;;4.60;96.10;;;;;;5092790;28;20427;-65
2022/03/06 13:54:23;;;;;;;0.40;0.40;;;4.50;96.30;;;;;;5092777;28;20469;-65
2022/03/06 13:57:12;;;;;;;0.60;0.60;;;4.10;97.10;;;;;;5092578;28;20978;-65
2022/03/06 14:00:21;;;;;;;2.30;2.20;;;3.90;97.40;;;;;;5093148;28;20478;-65
2022/03/06 14:03:11;;;;;;;0.63;0.63;;;3.80;97.10;;;;;;5092196;28;20496;-65
2022/03/06 14:06:00;;;;;;;0.40;0.40;;;3.60;97.50;;;;;;5092391;28;20431;-65
2022/03/06 14:08:47;;;;;;;8.47;0.97;;;3.70;97.70;;;;;;5093025;28;20450;-65
2022/03/06 14:11:35;;;;;;;0.40;0.40;;;3.70;98.00;;;;;;5092473;28;20816;-65
2022/03/06 14:14:22;;;;;;;0.50;0.50;;;3.60;98.20;;;;;;5093288;28;20635;-66
2022/03/06 14:17:12;;;;;;;0.50;0.50;;;3.60;98.70;;;;;;5092213;28;20443;-65
2022/03/06 14:20:00;;;;;;;0.97;0.83;;;3.50;99.00;;;;;;5093193;28;20481;-65
2022/03/06 14:22:47;;;;;;;0.97;0.80;;;3.40;99.00;;;;;;5093292;28;20489;-65
2022/03/06 14:25:33;;;;;;;0.40;0.40;;;3.20;99.70;;;;;;5092888;28;20448;-65
2022/03/06 14:28:22;;;;;;;0.40;0.40;;;3.20;99.90;;;;;;5092426;28;20938;-66
2022/03/06 14:31:09;;;;;;;1.47;1.20;;;3.20;99.90;;;;;;5092412;28;20451;-65
2022/03/06 14:33:56;;;;;;;0.40;0.40;;;3.20;99.90;;;;;;5092151;28;20465;-66
2022/03/06 14:36:44;;;;;;;1.70;1.03;;;3.10;99.90;;;;;;5092362;28;20512;-66
2022/03/06 14:39:31;;;;;;;0.50;0.50;;;3.00;99.90;;;;;;5092980;28;20949;-66
2022/03/06 14:42:18;;;;;;;0.50;0.50;;;3.10;99.90;;;;;;5093322;28;20979;-64
2022/03/06 14:45:08;;;;;;;0.40;0.40;;;3.00;99.90;;;;;;5093388;28;20466;-64
2022/03/06 14:47:56;;;;;;;0.50;0.50;;;3.00;99.90;;;;;;5093141;28;20506;-64